Other Surface Observations
Issued by NWS Great Falls, MT

Home | Current Version | Previous Version | Text Only | Print | Product List | Glossary On
Versions: 1 2 3 4 5 6 7 8 9 10 11 12 13 14 15 16 17 18 19 20 21 22 23 24 25 26 27 28 29 30 31 32 33 34 35 36 37 38 39 40 41 42 43 44 45 46 47 48 49 50
000
SXUS55 KTFX 192336
OSOTFX
AREA AWOS OBSERVATIONS
NATIONAL WEATHER SERVICE GREAT FALLS MT
0535 PM MDT SUN APR 19 2015

METAR KPWD 192330Z AUTO 33015G28KT 10SM 10/M09 A3000 RMK PLENTYWOOD
METAR KPO1 192330Z AUTO 31018G27KT 11/M12 A3003 RMK POPLAR
METAR K1S3 192330Z AUTO 30014G21KT 10SM 11/M08 A3009 RMK FORSYTH
METAR KS71 192330Z AUTO 34009G15KT 10SM 13/M09 A3011 RMK CHINOOK
METAR K6S0 192330Z AUTO 05005KT 10SM 09/M06 A3009 RMK BIG TIMBER
METAR K79S 192330Z AUTO 24006KT 10SM 13/M09 A3011 RMK FORT BENTON
METAR K38S 192330Z AUTO 02006KT 10SM 13/M04 A3007 RMK DEER LODGE
METAR K3U3 192330Z AUTO 03013G17KT 10SM 12/M05 A3003 RMK ANACONDA
METAR K6S5 192330Z AUTO 01005KT 10SM 18/M03 A3000 RMK HAMILTON
METAR KS59 192330Z AUTO 00000KT 10SM 19/M04 A3002 RMK LIBBY
METAR K88M 192330Z AUTO 07003KT 10SM 18/M06 A3004 RMK EUREKA



USA.gov is the U.S. government's official web portal to all federal, state and local government web resources and services.